Time;durP1;ratioP1;P1;durP2;ratioP2;P2;SDS_P1;SDS_P2;PMS_P1;PMS_P2;Temp;Humidity;BMP_temperature;BMP_pressure;BME280_temperature;BME280_humidity;BME280_pressure;Samples;Min_cycle;Max_cycle;Signal;HPM_P1;HPM_P2
2023/08/30 00:01:48;;;;;;;26.00;21.50;;;;;;;26.71;61.00;99868.64;104961;1268;62538;-60
2023/08/30 00:04:15;;;;;;;24.30;21.70;;;;;;;26.68;61.02;99867.73;105207;1266;59717;-60
2023/08/30 00:06:42;;;;;;;24.50;21.90;;;;;;;26.64;61.24;99869.58;104537;1266;59759;-57
2023/08/30 00:09:10;;;;;;;25.10;22.50;;;;;;;26.59;61.39;99871.56;104567;1270;64104;-57
2023/08/30 00:11:37;;;;;;;25.40;20.70;;;;;;;26.54;61.48;99872.02;104565;1265;60168;-57
2023/08/30 00:14:06;;;;;;;22.50;20.10;;;;;;;26.50;61.59;99870.39;104815;1266;63694;-59
2023/08/30 00:16:33;;;;;;;23.70;21.20;;;;;;;26.49;61.67;99873.98;104496;1268;59756;-58
2023/08/30 00:19:01;;;;;;;25.80;20.60;;;;;;;26.47;61.87;99873.02;104738;1264;59842;-59
2023/08/30 00:21:29;;;;;;;23.60;21.30;;;;;;;26.43;62.09;99872.19;104518;1267;62934;-60
2023/08/30 00:23:56;;;;;;;25.30;22.50;;;;;;;26.39;62.30;99870.98;104604;1266;60089;-58
2023/08/30 00:26:24;;;;;;;25.10;22.50;;;;;;;26.36;62.39;99874.59;104516;1266;62455;-58
2023/08/30 00:28:53;;;;;;;24.20;21.80;;;;;;;26.32;62.36;99877.70;104734;1266;59701;-60
2023/08/30 00:31:22;;;;;;;29.10;22.40;;;;;;;26.31;62.34;99876.48;104512;1266;59781;-59
2023/08/30 00:33:49;;;;;;;29.10;22.30;;;;;;;26.32;62.09;99880.27;104487;1264;62851;-60
2023/08/30 00:36:18;;;;;;;24.30;21.70;;;;;;;26.30;62.24;99879.69;104436;1266;60131;-59
2023/08/30 00:38:46;;;;;;;23.90;21.30;;;;;;;26.27;62.34;99881.52;104948;1269;62488;-59
2023/08/30 00:41:13;;;;;;;25.90;23.20;;;;;;;26.25;62.31;99888.14;104632;1269;59859;-59
2023/08/30 00:43:41;;;;;;;25.30;21.80;;;;;;;26.22;62.55;99891.17;104659;1265;59567;-59
2023/08/30 00:46:09;;;;;;;25.10;21.00;;;;;;;26.19;62.58;99894.73;104482;1265;64058;-59
2023/08/30 00:48:37;;;;;;;24.80;22.00;;;;;;;26.18;62.62;99898.92;104555;1271;60244;-59
2023/08/30 00:51:05;;;;;;;23.30;20.30;;;;;;;26.16;62.75;99896.85;104999;1260;65688;-59
2023/08/30 00:53:32;;;;;;;22.90;20.50;;;;;;;26.13;62.96;99894.41;105235;1260;59749;-59
2023/08/30 00:56:00;;;;;;;23.20;20.90;;;;;;;26.10;63.16;99893.56;104815;1260;59894;-58
2023/08/30 00:58:28;;;;;;;23.70;21.20;;;;;;;26.07;63.36;99898.80;105391;1264;64180;-59
2023/08/30 01:00:55;;;;;;;23.90;21.30;;;;;;;26.03;63.40;99899.38;104805;1267;61445;-59
2023/08/30 01:03:23;;;;;;;25.90;21.70;;;;;;;26.02;63.38;99902.58;104889;1263;64160;-60
2023/08/30 01:05:51;;;;;;;23.80;21.30;;;;;;;26.02;63.45;99905.00;104952;1266;59650;-60
2023/08/30 01:08:18;;;;;;;24.40;21.40;;;;;;;26.02;63.42;99904.89;105542;1261;59778;-60
2023/08/30 01:11:10;;;;;;;24.40;21.70;;;;;;;26.00;63.55;99904.42;105449;1259;62888;-59
2023/08/30 01:13:43;;;;;;;25.60;21.60;;;;;;;25.99;63.71;99904.60;104735;1262;61485;-58
2023/08/30 01:16:11;;;;;;;26.80;23.90;;;;;;;25.98;63.77;99905.88;104797;1266;62482;-59
2023/08/30 01:18:38;;;;;;;23.30;20.90;;;;;;;25.96;63.66;99908.09;105564;1262;59693;-59
2023/08/30 01:21:08;;;;;;;24.40;21.40;;;;;;;25.98;63.45;99907.95;105493;1260;59801;-60
2023/08/30 01:23:43;;;;;;;23.90;21.10;;;;;;;26.03;63.36;99909.17;105206;1262;64094;-59
2023/08/30 01:26:14;;;;;;;23.30;20.90;;;;;;;26.07;63.23;99903.88;104750;1263;61849;-59
2023/08/30 01:28:42;;;;;;;24.40;21.90;;;;;;;26.08;63.15;99901.90;104898;1264;64289;-58
2023/08/30 01:31:10;;;;;;;26.80;21.00;;;;;;;26.08;63.06;99904.92;104703;1268;59732;-59
2023/08/30 01:33:37;;;;;;;24.50;21.80;;;;;;;26.07;62.92;99904.30;104835;1260;59564;-59
2023/08/30 01:36:05;;;;;;;26.70;21.60;;;;;;;26.06;62.94;99908.38;105122;1263;64259;-58
2023/08/30 01:38:32;;;;;;;23.90;21.50;;;;;;;26.05;62.79;99909.33;104799;1266;60080;-57
2023/08/30 01:41:01;;;;;;;22.60;20.00;;;;;;;26.06;62.77;99905.80;105100;1263;63735;-58
2023/08/30 01:43:29;;;;;;;24.60;22.00;;;;;;;26.07;62.66;99901.17;104925;1262;61722;-58
2023/08/30 01:45:57;;;;;;;22.90;20.30;;;;;;;26.07;62.56;99897.89;104771;1260;59912;-58
2023/08/30 01:48:26;;;;;;;26.40;21.90;;;;;;;26.06;62.71;99898.19;104868;1261;62867;-58
2023/08/30 01:50:58;;;;;;;24.10;21.20;;;;;;;26.04;62.79;99901.39;104940;1267;61379;-57
2023/08/30 01:53:26;;;;;;;26.50;21.60;;;;;;;26.02;62.85;99903.45;104898;1260;63743;-59
2023/08/30 01:55:54;;;;;;;22.10;19.70;;;;;;;26.01;62.77;99901.54;104809;1260;59698;-59
2023/08/30 01:58:21;;;;;;;23.10;19.70;;;;;;;26.03;62.81;99899.84;104730;1263;59721;-59
2023/08/30 02:00:49;;;;;;;24.50;21.40;;;;;;;26.04;62.93;99897.17;104755;1260;64238;-60
2023/08/30 02:03:16;;;;;;;23.60;21.20;;;;;;;26.04;63.05;99896.46;104929;1265;60235;-59
2023/08/30 02:06:16;;;;;;;24.70;22.20;;;;;;;26.03;62.93;99898.01;105008;1263;63739;-59
2023/08/30 02:08:51;;;;;;;23.10;20.80;;;;;;;26.02;62.90;99900.04;104777;1262;59734;-59
2023/08/30 02:11:23;;;;;;;24.60;22.00;;;;;;;26.01;62.79;99899.05;104966;1260;59801;-55
2023/08/30 02:13:51;;;;;;;23.40;20.80;;;;;;;26.04;62.70;99896.64;105110;1265;64214;-59
2023/08/30 02:16:19;;;;;;;22.30;19.50;;;;;;;26.07;62.74;99895.35;104783;1265;61878;-56
2023/08/30 02:18:46;;;;;;;23.80;21.30;;;;;;;26.09;62.68;99895.79;104777;1262;63684;-56
2023/08/30 02:21:14;;;;;;;24.60;22.10;;;;;;;26.09;62.70;99899.89;104872;1258;59692;-58
2023/08/30 02:24:10;;;;;;;25.60;22.00;;;;;;;26.09;62.78;99903.25;104749;1263;60731;-59
2023/08/30 02:26:38;;;;;;;;;;;;;;;26.07;62.61;99904.29;105102;1260;62838;-59
2023/08/30 02:29:08;;;;;;;23.10;20.80;;;;;;;26.06;62.41;99905.59;104831;1260;61556;-59
2023/08/30 02:31:37;;;;;;;25.60;22.60;;;;;;;26.15;62.16;99901.27;104682;1265;63780;-59
2023/08/30 02:34:07;;;;;;;26.00;21.20;;;;;;;26.19;61.92;99901.63;105436;1253;61492;-58
2023/08/30 02:36:36;;;;;;;24.40;21.90;;;;;;;26.22;61.92;99900.89;105197;1263;59577;-59
2023/08/30 02:39:04;;;;;;;24.30;21.90;;;;;;;26.23;61.85;99898.27;105385;1253;64166;-58
2023/08/30 02:41:31;;;;;;;25.40;22.70;;;;;;;26.24;61.99;99901.76;105192;1253;61375;-59
2023/08/30 02:43:59;;;;;;;26.40;23.00;;;;;;;26.23;61.98;99902.27;105390;1253;63325;-56
2023/08/30 02:46:27;;;;;;;25.00;22.50;;;;;;;26.21;61.98;99900.82;105163;1253;59617;-60
2023/08/30 02:48:55;;;;;;;25.10;22.50;;;;;;;26.18;61.85;99898.16;105163;1258;60434;-59
2023/08/30 02:51:41;;;;;;;25.50;22.70;;;;;;;26.16;61.85;99898.88;105239;1259;64284;-60
2023/08/30 02:54:41;;;;;;;24.10;21.60;;;;;;;26.16;61.83;99899.64;105370;1253;61454;-60
2023/08/30 02:57:08;;;;;;;25.50;22.80;;;;;;;26.17;61.95;99898.42;105055;1254;64218;-60
2023/08/30 02:59:42;;;;;;;25.30;22.50;;;;;;;26.15;62.02;99902.42;105715;1253;60775;-60
2023/08/30 03:02:09;;;;;;;26.20;23.60;;;;;;;26.12;61.97;99902.02;104862;1259;59565;-59
2023/08/30 03:04:38;;;;;;;27.10;24.30;;;;;;;26.08;61.92;99903.48;105144;1259;64178;-54
2023/08/30 03:07:06;;;;;;;25.90;23.20;;;;;;;26.06;62.11;99905.75;105139;1258;62741;-60
2023/08/30 03:09:33;;;;;;;25.30;22.50;;;;;;;26.06;62.10;99902.89;104870;1256;63741;-59
2023/08/30 03:12:39;;;;;;;24.60;21.80;;;;;;;26.07;62.04;99905.80;105152;1256;59707;-60
2023/08/30 03:15:07;;;;;;;26.30;23.20;;;;;;;26.09;62.05;99907.56;105757;1253;59634;-59
2023/08/30 03:17:35;;;;;;;26.30;23.50;;;;;;;26.08;61.92;99905.08;105413;1259;64125;-60
2023/08/30 03:20:04;;;;;;;26.50;23.70;;;;;;;26.07;61.99;99907.32;105393;1253;61520;-58
2023/08/30 03:22:32;;;;;;;25.60;22.90;;;;;;;26.05;62.01;99910.51;105368;1259;65229;-61
2023/08/30 03:25:02;;;;;;;26.30;23.30;;;;;;;26.01;62.06;99911.93;105366;1258;59749;-59
2023/08/30 03:27:30;;;;;;;24.90;22.30;;;;;;;26.01;62.03;99913.55;105308;1253;59737;-59
2023/08/30 03:29:58;;;;;;;27.60;21.50;;;;;;;26.02;61.99;99910.17;105266;1253;62930;-59
2023/08/30 03:32:27;;;;;;;25.40;22.60;;;;;;;26.05;61.97;99909.42;105282;1253;62350;-59
2023/08/30 03:34:54;;;;;;;24.30;21.90;;;;;;;26.05;61.87;99911.66;105306;1258;62455;-60
2023/08/30 03:37:22;;;;;;;24.70;22.20;;;;;;;26.06;61.93;99906.50;105404;1253;59707;-56
2023/08/30 03:39:50;;;;;;;26.00;23.10;;;;;;;26.08;62.02;99906.00;105531;1253;59648;-57
2023/08/30 03:42:17;;;;;;;24.80;22.10;;;;;;;26.09;62.10;99905.69;105250;1259;64060;-63
2023/08/30 03:44:45;;;;;;;24.30;21.80;;;;;;;26.13;61.91;99905.77;105316;1259;60103;-61
2023/08/30 03:47:12;;;;;;;25.50;21.70;;;;;;;26.18;61.87;99906.69;105502;1257;63730;-62
2023/08/30 03:49:40;;;;;;;27.30;22.60;;;;;;;26.22;61.91;99904.67;105300;1259;60560;-57
2023/08/30 03:52:07;;;;;;;24.00;21.70;;;;;;;26.24;61.65;99905.03;105409;1254;60550;-56
2023/08/30 03:54:35;;;;;;;28.30;23.20;;;;;;;26.25;61.47;99905.54;105340;1253;65017;-56
2023/08/30 03:57:04;;;;;;;25.00;22.40;;;;;;;26.24;61.51;99906.70;105571;1253;60516;-57
2023/08/30 03:59:33;;;;;;;23.50;21.20;;;;;;;26.23;61.53;99905.39;105359;1256;63739;-61
2023/08/30 04:02:00;;;;;;;23.00;20.70;;;;;;;26.25;61.66;99905.69;105293;1253;60769;-60
2023/08/30 04:04:28;;;;;;;24.00;21.40;;;;;;;26.27;61.53;99904.98;105372;1253;60617;-60
2023/08/30 04:06:56;;;;;;;24.50;21.80;;;;;;;26.31;61.50;99908.30;105190;1253;63721;-57
2023/08/30 04:09:23;;;;;;;25.10;22.60;;;;;;;26.35;61.58;99910.83;105290;1254;61333;-67
2023/08/30 04:11:51;;;;;;;25.70;23.00;;;;;;;26.39;61.64;99910.20;105118;1253;63707;-58
2023/08/30 04:14:18;;;;;;;27.90;23.30;;;;;;;26.42;61.62;99907.83;105253;1253;60467;-59
2023/08/30 04:16:48;;;;;;;24.20;21.70;;;;;;;26.43;61.60;99905.85;105351;1254;60495;-67
2023/08/30 04:19:16;;;;;;;22.90;20.50;;;;;;;26.47;61.59;99906.47;105279;1253;64987;-66
2023/08/30 04:21:43;;;;;;;22.80;20.50;;;;;;;26.52;61.69;99907.37;105218;1257;61432;-64
2023/08/30 04:24:11;;;;;;;23.00;20.70;;;;;;;26.60;61.65;99910.66;105377;1259;62687;-58
2023/08/30 04:26:39;;;;;;;22.30;20.00;;;;;;;26.67;61.40;99910.02;105156;1256;60576;-62
2023/08/30 04:29:06;;;;;;;24.90;22.00;;;;;;;26.71;61.46;99910.20;105231;1254;60564;-59
2023/08/30 04:31:34;;;;;;;23.10;20.20;;;;;;;26.76;61.33;99912.48;105168;1253;64961;-59
2023/08/30 04:34:52;;;;;;;22.80;20.30;;;;;;;26.82;61.20;99919.09;105328;1259;60511;-57
2023/08/30 04:37:45;;;;;;;21.60;19.40;;;;;;;26.92;60.98;99918.36;105173;1253;62543;-56
2023/08/30 04:40:35;;;;;;;22.90;20.60;;;;;;;27.01;60.98;99920.84;104770;1253;60623;-65
2023/08/30 04:43:03;;;;;;;23.40;20.90;;;;;;;27.05;60.88;99924.54;105247;1253;60339;-60
2023/08/30 04:45:31;;;;;;;26.00;21.10;;;;;;;27.09;60.68;99920.98;105118;1253;64923;-59
2023/08/30 04:47:59;;;;;;;24.60;21.30;;;;;;;27.13;60.52;99923.05;105061;1259;60489;-54
2023/08/30 04:50:27;;;;;;;20.00;17.90;;;;;;;27.15;60.15;99924.29;104813;1259;63785;-57
2023/08/30 04:52:54;;;;;;;22.30;20.20;;;;;;;27.19;59.82;99916.71;104986;1253;60495;-56
2023/08/30 04:55:28;;;;;;;22.60;20.20;;;;;;;27.25;59.46;99913.41;105108;1259;60365;-56
2023/08/30 04:57:58;;;;;;;21.20;19.10;;;;;;;27.29;59.22;99913.88;105260;1259;64898;-58
2023/08/30 05:00:28;;;;;;;21.90;19.80;;;;;;;27.32;58.87;99913.13;105406;1259;60515;-60
2023/08/30 05:02:57;;;;;;;24.40;21.50;;;;;;;27.36;58.36;99910.81;105404;1253;62554;-59
2023/08/30 05:05:24;;;;;;;22.00;18.80;;;;;;;27.37;58.15;99910.95;105245;1253;60486;-55
2023/08/30 05:07:52;;;;;;;22.30;20.00;;;;;;;27.37;57.83;99910.94;105355;1253;60459;-57
2023/08/30 05:10:19;;;;;;;21.80;19.60;;;;;;;27.39;57.43;99912.44;105484;1259;63607;-55
2023/08/30 05:13:15;;;;;;;19.90;17.80;;;;;;;27.43;57.07;99911.30;105392;1253;61398;-56
2023/08/30 05:15:55;;;;;;;21.30;19.30;;;;;;;27.48;56.60;99913.77;104892;1253;63825;-57
2023/08/30 05:18:23;;;;;;;23.30;19.80;;;;;;;27.49;56.61;99916.11;105391;1259;60589;-59
2023/08/30 05:20:50;;;;;;;22.20;19.60;;;;;;;27.51;56.55;99918.34;105267;1253;60521;-56
2023/08/30 05:23:18;;;;;;;22.60;20.50;;;;;;;27.51;56.30;99916.63;105376;1253;63675;-55
2023/08/30 05:26:19;;;;;;;22.50;20.20;;;;;;;27.51;56.21;99917.39;105409;1253;61407;-59
2023/08/30 05:28:47;;;;;;;21.00;18.10;;;;;;;27.51;56.57;99912.41;105338;1261;62619;-59
2023/08/30 05:31:14;;;;;;;20.60;18.40;;;;;;;27.57;56.49;99918.60;105336;1261;60493;-58
2023/08/30 05:34:00;;;;;;;22.60;20.20;;;;;;;27.63;56.42;99917.56;105361;1254;59562;-57
2023/08/30 05:37:01;;;;;;;21.90;19.60;;;;;;;27.68;56.24;99920.17;105358;1258;65963;-57
2023/08/30 05:39:41;;;;;;;24.60;20.20;;;;;;;27.71;56.05;99916.32;105452;1259;60438;-56
2023/08/30 05:42:08;;;;;;;21.90;19.70;;;;;;;27.73;56.02;99909.55;105344;1258;63768;-57
2023/08/30 05:44:36;;;;;;;22.20;19.90;;;;;;;27.76;56.06;99911.20;105295;1260;60627;-56
2023/08/30 05:47:04;;;;;;;22.90;20.60;;;;;;;27.77;56.10;99909.93;105315;1259;60482;-57
2023/08/30 05:49:32;;;;;;;22.20;20.10;;;;;;;27.78;56.20;99910.91;105485;1259;63635;-58
2023/08/30 05:52:00;;;;;;;22.20;19.60;;;;;;;27.83;56.20;99905.86;105236;1253;61494;-59
2023/08/30 05:54:31;;;;;;;21.00;18.80;;;;;;;27.93;56.50;99909.70;105308;1259;63775;-56
2023/08/30 05:56:59;;;;;;;21.30;18.80;;;;;;;28.04;56.61;99909.52;105287;1259;60432;-58
2023/08/30 05:59:27;;;;;;;25.20;19.80;;;;;;;28.16;56.68;99909.96;105500;1259;60362;-56
2023/08/30 06:01:55;;;;;;;20.70;18.60;;;;;;;28.27;56.34;99908.14;105316;1259;64943;-55
2023/08/30 06:04:23;;;;;;;22.30;19.90;;;;;;;28.36;56.07;99908.47;105412;1253;62306;-56
2023/08/30 06:06:50;;;;;;;22.00;19.10;;;;;;;28.43;55.68;99910.92;105272;1257;62686;-55
2023/08/30 06:09:18;;;;;;;21.50;19.30;;;;;;;28.49;55.83;99914.67;105396;1254;60659;-56
2023/08/30 06:11:46;;;;;;;24.00;18.80;;;;;;;28.54;55.69;99914.85;105300;1259;60502;-56
2023/08/30 06:14:13;;;;;;;19.30;17.40;;;;;;;28.61;55.42;99920.37;105368;1259;64990;-56
2023/08/30 06:16:44;;;;;;;20.40;16.50;;;;;;;28.69;55.63;99917.69;105304;1259;60442;-57
2023/08/30 06:19:11;;;;;;;20.90;17.60;;;;;;;28.76;54.71;99918.63;105396;1256;63922;-55
2023/08/30 06:21:39;;;;;;;20.50;18.40;;;;;;;28.81;53.96;99921.55;105352;1254;60575;-53
2023/08/30 06:24:07;;;;;;;20.70;18.30;;;;;;;28.86;54.36;99919.94;105369;1253;63077;-53
2023/08/30 06:27:04;;;;;;;24.40;19.70;;;;;;;28.92;54.55;99920.05;105320;1258;64917;-55
2023/08/30 06:29:31;;;;;;;22.70;17.30;;;;;;;28.99;53.74;99919.13;105651;1254;61408;-53
2023/08/30 06:31:59;;;;;;;19.40;17.20;;;;;;;29.02;53.02;99918.89;105229;1254;63741;-53
2023/08/30 06:34:27;;;;;;;19.30;16.50;;;;;;;29.06;52.93;99919.04;105333;1254;60562;-53
2023/08/30 06:36:55;;;;;;;17.80;15.40;;;;;;;29.10;53.04;99918.36;105210;1259;60537;-54
2023/08/30 06:39:22;;;;;;;17.10;14.40;;;;;;;29.17;52.28;99918.13;105200;1254;65072;-56
2023/08/30 06:41:50;;;;;;;19.60;15.50;;;;;;;29.25;52.00;99918.14;105770;1254;61338;-56
2023/08/30 06:44:19;;;;;;;16.60;13.90;;;;;;;29.33;51.74;99923.41;105257;1253;62458;-56
2023/08/30 06:46:47;;;;;;;16.20;13.50;;;;;;;29.39;50.82;99922.22;105240;1254;60537;-59
2023/08/30 06:49:14;;;;;;;16.90;15.20;;;;;;;29.44;50.27;99919.83;105234;1259;60357;-56
2023/08/30 06:51:42;;;;;;;18.20;16.30;;;;;;;29.51;50.79;99917.20;105376;1258;65065;-59
2023/08/30 06:55:11;;;;;;;17.70;15.40;;;;;;;29.56;51.11;99918.06;105321;1253;61286;-58
2023/08/30 06:57:50;;;;;;;16.60;14.30;;;;;;;29.65;50.77;99918.83;104973;1262;63758;-58
2023/08/30 07:00:51;;;;;;;16.90;13.70;;;;;;;29.72;50.35;99923.59;104673;1260;60913;-58
2023/08/30 07:03:25;;;;;;;17.60;14.80;;;;;;;29.77;50.53;99923.01;105120;1262;60555;-59
2023/08/30 07:05:52;;;;;;;15.60;13.90;;;;;;;29.81;50.62;99921.30;104560;1254;63748;-58
2023/08/30 07:08:35;;;;;;;15.40;13.70;;;;;;;29.85;50.95;99921.43;105369;1257;60447;-57
2023/08/30 07:11:43;;;;;;;19.30;15.90;;;;;;;29.92;50.34;99914.80;104830;1253;63920;-57
2023/08/30 07:14:50;;;;;;;16.80;15.00;;;;;;;29.97;50.61;99918.02;105393;1261;61334;-59
2023/08/30 07:17:45;;;;;;;16.80;13.90;;;;;;;30.03;50.23;99916.27;104917;1254;60646;-60
2023/08/30 07:20:23;;;;;;;16.90;13.20;;;;;;;30.12;49.90;99916.52;105031;1254;63718;-59
2023/08/30 07:22:52;;;;;;;18.90;13.00;;;;;;;30.18;49.29;99916.94;105109;1264;60824;-59
2023/08/30 07:25:22;;;;;;;17.70;14.00;;;;;;;30.26;49.61;99917.95;105077;1256;64178;-57
2023/08/30 07:27:50;;;;;;;14.90;13.00;;;;;;;30.34;49.55;99921.64;105285;1255;60636;-61
2023/08/30 07:30:17;;;;;;;14.30;12.50;;;;;;;30.42;49.41;99917.29;105387;1254;61125;-58
2023/08/30 07:32:45;;;;;;;13.60;12.20;;;;;;;30.47;49.40;99916.81;105558;1258;64912;-56
2023/08/30 07:35:13;;;;;;;15.30;12.90;;;;;;;30.51;48.24;99915.25;105440;1253;61323;-56
2023/08/30 07:37:41;;;;;;;15.50;12.90;;;;;;;30.56;47.70;99912.71;105295;1258;73139;-56
2023/08/30 07:40:10;;;;;;;15.10;12.40;;;;;;;30.64;48.17;99911.15;105250;1253;60530;-57
2023/08/30 07:42:37;;;;;;;14.40;12.80;;;;;;;30.69;48.36;99910.25;105486;1254;60558;-59
2023/08/30 07:45:07;;;;;;;14.90;12.30;;;;;;;30.72;48.56;99905.96;105414;1254;64914;-58
2023/08/30 07:47:35;;;;;;;16.10;12.00;;;;;;;30.75;47.48;99907.54;105620;1257;72580;-55
2023/08/30 07:50:05;;;;;;;13.90;12.40;;;;;;;30.77;47.15;99906.13;105360;1257;63733;-58
2023/08/30 07:52:33;;;;;;;15.50;12.10;;;;;;;30.79;46.88;99904.83;105673;1258;60558;-56
2023/08/30 07:55:13;;;;;;;14.60;12.00;;;;;;;30.80;46.03;99907.02;105723;1258;60651;-58
2023/08/30 07:57:41;;;;;;;13.00;11.30;;;;;;;30.81;46.55;99903.48;105868;1255;63660;-57
2023/08/30 08:00:09;;;;;;;14.90;11.90;;;;;;;30.84;46.55;99903.48;105465;1259;61497;-58
2023/08/30 08:02:40;;;;;;;14.40;12.20;;;;;;;30.89;46.39;99899.14;105337;1259;62522;-56
2023/08/30 08:05:08;;;;;;;13.20;10.60;;;;;;;30.93;46.60;99899.44;105500;1258;60556;-57
2023/08/30 08:07:38;;;;;;;15.70;11.10;;;;;;;30.98;45.61;99900.65;105294;1259;60556;-58
2023/08/30 08:10:07;;;;;;;14.20;11.70;;;;;;;31.01;45.13;99900.04;105497;1253;65010;-56
2023/08/30 08:12:34;;;;;;;12.20;10.60;;;;;;;31.03;44.28;99900.05;105455;1259;60541;-59
2023/08/30 08:15:05;;;;;;;13.40;11.30;;;;;;;31.07;44.17;99900.81;105449;1260;62506;-60
2023/08/30 08:18:23;;;;;;;14.70;11.80;;;;;;;31.10;44.06;99901.68;105197;1257;60562;-59
2023/08/30 08:20:51;;;;;;;12.70;11.50;;;;;;;31.15;44.00;99903.92;105256;1254;60542;-58
2023/08/30 08:23:19;;;;;;;14.20;11.40;;;;;;;31.19;44.60;99903.11;105122;1264;64963;-59
2023/08/30 08:25:46;;;;;;;13.30;11.90;;;;;;;31.24;45.09;99904.41;105267;1259;60462;-58
2023/08/30 08:28:15;;;;;;;14.60;11.60;;;;;;;31.32;44.96;99904.46;105444;1257;63780;-58
2023/08/30 08:30:45;;;;;;;18.20;13.50;;;;;;;31.42;45.47;99902.98;105571;1254;60458;-60
2023/08/30 08:34:06;;;;;;;14.90;13.20;;;;;;;31.52;46.70;99901.21;105583;1260;60538;-57
2023/08/30 08:36:47;;;;;;;15.50;13.50;;;;;;;31.60;46.89;99899.84;105197;1260;65033;-57
2023/08/30 08:40:13;;;;;;;15.50;13.20;;;;;;;31.62;47.41;99896.95;104937;1262;61463;-58
2023/08/30 08:43:15;;;;;;;21.60;15.20;;;;;;;31.61;47.48;99898.48;105190;1257;63740;-59
2023/08/30 08:45:44;;;;;;;20.10;14.90;;;;;;;31.62;47.35;99898.43;105359;1260;60449;-58
2023/08/30 08:48:12;;;;;;;16.90;13.90;;;;;;;31.62;47.13;99897.12;105308;1253;60559;-58
2023/08/30 08:50:40;;;;;;;14.90;13.30;;;;;;;31.64;47.41;99898.43;105471;1259;64933;-58
2023/08/30 08:53:08;;;;;;;22.70;14.20;;;;;;;31.66;47.20;99896.45;105397;1260;61384;-58
2023/08/30 08:55:36;;;;;;;19.20;12.20;;;;;;;31.68;47.15;99894.71;105355;1260;63800;-58
2023/08/30 08:58:03;;;;;;;18.10;13.20;;;;;;;31.70;46.99;99884.98;105267;1264;60487;-58
2023/08/30 09:00:43;;;;;;;14.90;13.00;;;;;;;31.70;46.42;99881.88;105315;1254;60479;-60
2023/08/30 09:03:14;;;;;;;15.80;12.20;;;;;;;31.69;46.23;99878.51;104819;1260;64929;-59
2023/08/30 09:06:19;;;;;;;12.60;11.30;;;;;;;31.69;46.37;99878.61;105525;1258;60548;-59
2023/08/30 09:08:52;;;;;;;14.00;11.50;;;;;;;31.66;45.66;99873.89;105145;1257;63713;-59
2023/08/30 09:12:03;;;;;;;13.90;11.20;;;;;;;31.68;45.11;99874.65;105291;1262;60505;-59
2023/08/30 09:15:06;;;;;;;13.10;11.70;;;;;;;31.74;45.23;99870.23;105042;1254;60484;-60
2023/08/30 09:17:37;;;;;;;14.40;11.80;;;;;;;31.79;45.51;99868.68;105379;1254;64964;-59
2023/08/30 09:20:12;;;;;;;12.90;11.40;;;;;;;31.84;45.60;99864.75;106268;1257;72579;-59
2023/08/30 09:22:40;;;;;;;16.10;11.50;;;;;;;31.87;44.99;99869.53;105122;1259;66228;-56
2023/08/30 09:25:09;;;;;;;14.20;10.60;;;;;;;31.91;44.55;99868.70;105520;1260;60564;-57
2023/08/30 09:27:38;;;;;;;19.90;11.30;;;;;;;31.97;44.37;99865.58;105240;1258;60550;-59
2023/08/30 09:30:08;;;;;;;13.00;10.30;;;;;;;32.04;44.30;99863.86;106938;1254;63709;-59
2023/08/30 09:32:40;;;;;;;15.60;11.90;;;;;;;32.12;44.21;99861.79;105482;1259;61567;-59
2023/08/30 09:35:28;;;;;;;12.60;11.00;;;;;;;32.20;43.99;99857.95;105382;1257;62706;-59
2023/08/30 09:37:55;;;;;;;12.70;10.80;;;;;;;32.24;43.55;99850.59;105387;1259;60530;-57
2023/08/30 09:40:53;;;;;;;14.80;11.80;;;;;;;32.27;43.37;99850.23;105361;1258;60362;-59
2023/08/30 09:43:41;;;;;;;12.30;11.00;;;;;;;32.33;44.09;99849.27;104778;1254;64020;-59
2023/08/30 09:46:09;;;;;;;12.40;10.90;;;;;;;32.42;43.78;99849.87;105288;1255;61850;-59
2023/08/30 09:48:39;;;;;;;13.90;11.10;;;;;;;32.51;43.05;99849.17;105307;1254;65796;-58
2023/08/30 09:51:59;;;;;;;14.40;11.50;;;;;;;32.61;42.67;99844.17;105505;1254;60555;-60
2023/08/30 09:54:38;;;;;;;17.90;11.00;;;;;;;32.71;42.75;99842.25;105365;1254;60514;-59
2023/08/30 09:57:07;;;;;;;15.80;11.90;;;;;;;32.78;42.23;99837.19;105071;1264;64522;-59
2023/08/30 09:59:34;;;;;;;14.40;10.90;;;;;;;32.79;41.64;99836.80;105356;1259;61676;-59
2023/08/30 10:02:02;;;;;;;16.10;12.20;;;;;;;32.78;41.66;99837.36;105488;1254;62560;-58
2023/08/30 10:04:31;;;;;;;13.20;11.00;;;;;;;32.77;41.83;99832.63;105374;1263;60502;-59
2023/08/30 10:06:59;;;;;;;13.00;11.70;;;;;;;32.77;42.14;99830.02;105652;1254;60517;-60
2023/08/30 10:09:30;;;;;;;13.90;11.00;;;;;;;32.78;42.14;99824.98;105496;1260;64858;-59
2023/08/30 10:11:58;;;;;;;18.80;12.50;;;;;;;32.80;42.20;99825.52;105193;1261;61413;-57
2023/08/30 10:14:25;;;;;;;13.80;11.60;;;;;;;32.83;42.26;99824.25;105402;1259;62467;-57
2023/08/30 10:17:01;;;;;;;16.20;11.40;;;;;;;32.89;41.94;99824.41;105276;1254;60532;-57
2023/08/30 10:19:29;;;;;;;16.90;11.60;;;;;;;32.96;42.22;99822.45;105523;1254;60565;-57
2023/08/30 10:22:08;;;;;;;14.60;11.10;;;;;;;33.01;41.89;99821.26;105620;1251;63738;-57
2023/08/30 10:24:41;;;;;;;14.50;11.40;;;;;;;33.07;41.18;99819.29;105545;1254;61313;-56
2023/08/30 10:27:28;;;;;;;13.40;11.10;;;;;;;33.13;40.66;99817.38;105354;1260;63737;-56
2023/08/30 10:29:56;;;;;;;13.90;10.70;;;;;;;33.16;40.65;99815.38;105424;1260;60556;-57
2023/08/30 10:32:24;;;;;;;11.40;9.80;;;;;;;33.19;40.33;99813.33;105653;1263;60846;-57
2023/08/30 10:34:52;;;;;;;12.50;10.40;;;;;;;33.20;40.32;99810.20;105554;1261;67584;-57
2023/08/30 10:37:25;;;;;;;11.70;10.40;;;;;;;33.20;41.03;99805.02;105372;1257;60472;-57
2023/08/30 10:39:53;;;;;;;11.40;10.10;;;;;;;33.23;40.80;99802.93;105511;1260;64343;-57
2023/08/30 10:42:23;;;;;;;13.50;10.20;;;;;;;33.27;40.07;99799.34;105388;1259;60814;-57
2023/08/30 10:44:56;;;;;;;14.50;11.10;;;;;;;33.33;39.75;99796.45;105646;1257;60538;-59
2023/08/30 10:47:40;;;;;;;12.70;9.90;;;;;;;33.39;39.27;99793.71;105629;1254;64941;-58
2023/08/30 10:50:12;;;;;;;13.30;10.60;;;;;;;33.45;38.63;99793.70;105477;1257;61578;-57
2023/08/30 10:52:42;;;;;;;13.20;11.00;;;;;;;33.50;38.39;99792.55;105407;1259;63797;-56
2023/08/30 10:55:16;;;;;;;12.30;10.60;;;;;;;33.53;38.31;99794.27;105396;1255;60625;-56
2023/08/30 10:57:44;;;;;;;11.60;9.30;;;;;;;33.57;38.17;99792.69;105347;1260;60446;-57
2023/08/30 11:00:21;;;;;;;11.80;10.40;;;;;;;33.61;37.91;99788.56;105517;1255;64436;-58
2023/08/30 11:02:50;;;;;;;12.60;9.60;;;;;;;33.65;37.72;99780.37;105399;1258;61369;-57
2023/08/30 11:05:19;;;;;;;13.30;10.40;;;;;;;33.69;37.77;99771.47;105452;1258;71035;-57
2023/08/30 11:07:49;;;;;;;11.30;10.10;;;;;;;33.73;37.64;99766.83;106105;1253;60471;-56
2023/08/30 11:10:17;;;;;;;13.50;10.00;;;;;;;33.76;37.56;99766.83;107688;1254;60475;-60
2023/08/30 11:12:44;;;;;;;13.00;9.30;;;;;;;33.81;37.72;99760.27;105309;1255;65496;-59
2023/08/30 11:15:16;;;;;;;12.70;10.40;;;;;;;33.87;37.95;99757.75;105263;1253;61388;-58
2023/08/30 11:17:43;;;;;;;10.90;9.70;;;;;;;33.91;38.05;99753.55;105403;1256;63789;-57
2023/08/30 11:20:13;;;;;;;13.30;10.00;;;;;;;33.94;37.84;99748.69;105388;1261;61887;-57
2023/08/30 11:22:45;;;;;;;11.00;9.40;;;;;;;33.97;38.01;99743.04;105153;1264;60367;-56
2023/08/30 11:25:35;;;;;;;10.80;9.20;;;;;;;34.02;38.37;99738.02;105526;1259;64868;-57
2023/08/30 11:28:03;;;;;;;15.30;9.90;;;;;;;34.06;37.94;99728.98;105354;1259;61365;-56
2023/08/30 11:30:31;;;;;;;15.10;9.70;;;;;;;34.08;37.78;99723.66;105433;1260;62538;-58
2023/08/30 11:32:58;;;;;;;12.40;9.90;;;;;;;34.12;37.85;99718.66;105296;1258;60620;-57
2023/08/30 11:35:26;;;;;;;11.30;9.20;;;;;;;34.15;37.46;99717.78;105444;1258;60873;-56